createdAt,value
2017-04-24T00:00:38.528Z,-1.50
2017-04-24T00:01:37.816Z,-1.50
2017-04-24T00:02:37.237Z,-1.50
2017-04-24T00:03:36.516Z,-1.50
2017-04-24T00:04:36.276Z,-1.50
2017-04-24T00:05:35.539Z,-1.50
2017-04-24T00:06:35.701Z,-1.50
2017-04-24T00:07:35.017Z,-1.50
2017-04-24T00:08:34.429Z,-1.50
2017-04-24T00:09:33.661Z,-1.50
2017-04-24T00:10:32.919Z,-1.50
2017-04-24T00:11:33.310Z,-1.50
2017-04-24T00:12:32.533Z,-1.50
2017-04-24T00:13:32.523Z,-1.60
2017-04-24T00:14:32.143Z,-1.60
2017-04-24T00:15:31.568Z,-1.60
2017-04-24T00:16:30.820Z,-1.60
2017-04-24T00:17:30.778Z,-1.70
2017-04-24T00:18:30.037Z,-1.70
2017-04-24T00:19:29.672Z,-1.70
2017-04-24T00:20:28.964Z,-1.80
2017-04-24T00:21:28.185Z,-1.80
2017-04-24T00:22:28.167Z,-1.80
2017-04-24T00:23:27.392Z,-1.80
2017-04-24T00:24:27.358Z,-1.90
2017-04-24T00:25:26.896Z,-1.90
2017-04-24T00:26:26.209Z,-1.90
2017-04-24T00:27:25.425Z,-2.00
2017-04-24T00:28:24.662Z,-2.00
2017-04-24T00:29:24.609Z,-2.00
2017-04-24T00:30:23.917Z,-2.10
2017-04-24T00:31:23.216Z,-2.10
2017-04-24T00:32:22.613Z,-2.20
2017-04-24T00:33:22.261Z,-2.20
2017-04-24T00:34:21.500Z,-2.20
2017-04-24T00:35:21.147Z,-2.20
2017-04-24T00:36:20.643Z,-2.20
2017-04-24T00:37:19.912Z,-2.20
2017-04-24T00:38:19.933Z,-2.20
2017-04-24T00:39:19.469Z,-2.20
2017-04-24T00:40:18.720Z,-2.10
2017-04-24T00:41:18.239Z,-2.10
2017-04-24T00:42:17.466Z,-2.10
2017-04-24T00:43:16.683Z,-2.10
2017-04-24T00:44:16.814Z,-2.20
2017-04-24T00:45:16.029Z,-2.20
2017-04-24T00:46:15.317Z,-2.20
2017-04-24T00:47:14.629Z,-2.20
2017-04-24T00:48:13.849Z,-2.20
2017-04-24T00:49:13.825Z,-2.30
2017-04-24T00:50:13.068Z,-2.30
2017-04-24T00:51:12.286Z,-2.30
2017-04-24T00:52:11.588Z,-2.30
2017-04-24T00:53:10.873Z,-2.30
2017-04-24T00:54:10.399Z,-2.30
2017-04-24T00:55:09.971Z,-2.30
2017-04-24T00:56:09.280Z,-2.30
2017-04-24T00:57:09.150Z,-2.30
2017-04-24T00:58:08.356Z,-2.30
2017-04-24T00:59:07.567Z,-2.30
2017-04-24T01:00:06.833Z,-2.30
2017-04-24T01:01:06.260Z,-2.30
2017-04-24T01:02:06.320Z,-2.30
2017-04-24T01:03:05.602Z,-2.30
2017-04-24T01:04:04.922Z,-2.30
2017-04-24T01:05:04.191Z,-2.30
2017-04-24T01:06:03.501Z,-2.20
2017-04-24T01:07:02.878Z,-2.20
2017-04-24T01:08:02.181Z,-2.20
2017-04-24T01:09:01.400Z,-2.20
2017-04-24T01:10:00.615Z,-2.20
2017-04-24T01:11:00.165Z,-2.20
2017-04-24T01:11:59.470Z,-2.30
2017-04-24T01:12:58.717Z,-2.30
2017-04-24T01:13:57.999Z,-2.30
2017-04-24T01:14:57.761Z,-2.30
2017-04-24T01:15:57.078Z,-2.30
2017-04-24T01:16:56.308Z,-2.30
2017-04-24T01:17:55.731Z,-2.30
2017-04-24T01:18:55.768Z,-2.30
2017-04-24T01:19:55.021Z,-2.30
2017-04-24T01:20:54.452Z,-2.30
2017-04-24T01:21:53.707Z,-2.20
2017-04-24T01:22:52.981Z,-2.20
2017-04-24T01:23:52.506Z,-2.20
2017-04-24T01:24:52.487Z,-2.20
2017-04-24T01:25:52.006Z,-2.20
2017-04-24T01:26:51.979Z,-2.20
2017-04-24T01:27:51.522Z,-2.10
2017-04-24T01:28:50.752Z,-2.10
2017-04-24T01:29:50.088Z,-2.10
2017-04-24T01:30:50.093Z,-2.20
2017-04-24T01:31:50.231Z,-2.20
2017-04-24T01:32:49.447Z,-2.10
2017-04-24T01:33:48.691Z,-2.10
2017-04-24T01:34:48.713Z,-2.20
2017-04-24T01:35:48.368Z,-2.20
2017-04-24T01:36:47.615Z,-2.20
2017-04-24T01:37:47.162Z,-2.20
2017-04-24T01:38:46.426Z,-2.20
2017-04-24T01:39:45.672Z,-2.30
2017-04-24T01:40:45.619Z,-2.30
2017-04-24T01:41:44.972Z,-2.30
2017-04-24T01:42:44.991Z,-2.40
2017-04-24T01:43:44.297Z,-2.40
2017-04-24T01:44:43.708Z,-2.40
2017-04-24T01:45:43.085Z,-2.40
2017-04-24T01:46:42.326Z,-2.50
2017-04-24T01:47:42.291Z,-2.50
2017-04-24T01:48:41.572Z,-2.50
2017-04-24T01:49:40.874Z,-2.50
2017-04-24T01:50:40.097Z,-2.60
2017-04-24T01:51:39.318Z,-2.60
2017-04-24T01:52:38.536Z,-2.60
2017-04-24T01:53:38.055Z,-2.60
2017-04-24T01:54:37.284Z,-2.60
2017-04-24T01:55:37.269Z,-2.60
2017-04-24T01:56:36.547Z,-2.60
2017-04-24T01:57:35.794Z,-2.60
2017-04-24T01:58:35.084Z,-2.70
2017-04-24T01:59:34.303Z,-2.70
2017-04-24T02:00:33.532Z,-2.60
2017-04-24T02:01:33.572Z,-2.60
2017-04-24T02:02:34.008Z,-2.60
2017-04-24T02:03:33.416Z,-2.60
2017-04-24T02:04:33.601Z,-2.60
2017-04-24T02:05:33.020Z,-2.60
2017-04-24T02:06:32.267Z,-2.60
2017-04-24T02:07:32.135Z,-2.60
2017-04-24T02:08:31.490Z,-2.60
2017-04-24T02:09:30.746Z,-2.60
2017-04-24T02:10:29.960Z,-2.60
2017-04-24T02:11:29.369Z,-2.60
2017-04-24T02:12:28.599Z,-2.60
2017-04-24T02:13:28.600Z,-2.70
2017-04-24T02:14:28.563Z,-2.70
2017-04-24T02:15:28.076Z,-2.70
2017-04-24T02:16:27.893Z,-2.70
2017-04-24T02:17:27.968Z,-2.80
2017-04-24T02:18:27.284Z,-2.80
2017-04-24T02:19:27.157Z,-2.80
2017-04-24T02:20:26.864Z,-2.80
2017-04-24T02:21:26.126Z,-2.80
2017-04-24T02:22:25.451Z,-2.80
2017-04-24T02:23:24.699Z,-2.80
2017-04-24T02:24:24.977Z,-2.80
2017-04-24T02:25:24.927Z,-2.80
2017-04-24T02:26:24.148Z,-2.70
2017-04-24T02:27:24.235Z,-2.70
2017-04-24T02:28:23.484Z,-2.70
2017-04-24T02:29:22.693Z,-2.70
2017-04-24T02:30:21.944Z,-2.60
2017-04-24T02:31:21.221Z,-2.60
2017-04-24T02:32:20.541Z,-2.60
2017-04-24T02:33:20.787Z,-2.60
2017-04-24T02:34:20.112Z,-2.60
2017-04-24T02:35:19.380Z,-2.50
2017-04-24T02:36:18.670Z,-2.60
2017-04-24T02:37:17.932Z,-2.50
2017-04-24T02:38:18.774Z,-2.50
2017-04-24T02:39:18.061Z,-2.50
2017-04-24T02:40:17.291Z,-2.50
2017-04-24T02:41:16.516Z,-2.50
2017-04-24T02:42:15.742Z,-2.60
2017-04-24T02:43:15.013Z,-2.60
2017-04-24T02:44:15.393Z,-2.60
2017-04-24T02:45:14.717Z,-2.60
2017-04-24T02:46:15.126Z,-2.70
2017-04-24T02:47:15.943Z,-2.70
2017-04-24T02:48:15.199Z,-2.70
2017-04-24T02:49:14.488Z,-2.70
2017-04-24T02:50:13.752Z,-2.70
2017-04-24T02:51:12.982Z,-2.70
2017-04-24T02:52:12.187Z,-2.80
2017-04-24T02:54:10.953Z,-2.80
2017-04-24T02:55:10.164Z,-2.90
2017-04-24T02:56:10.228Z,-2.90
2017-04-24T02:57:10.165Z,-2.90
2017-04-24T02:58:11.314Z,-2.90
2017-04-24T02:59:10.768Z,-3.00
2017-04-24T03:00:10.223Z,-3.00
2017-04-24T03:01:09.476Z,-3.00
2017-04-24T03:02:08.699Z,-3.00
2017-04-24T03:03:09.284Z,-3.10
2017-04-24T03:04:08.884Z,-3.10
2017-04-24T03:05:08.596Z,-3.10
2017-04-24T03:06:08.300Z,-3.10
2017-04-24T03:07:07.715Z,-3.10
2017-04-24T03:08:08.039Z,-3.10
2017-04-24T03:09:08.615Z,-3.10
2017-04-24T03:10:08.155Z,-3.00
2017-04-24T03:11:07.404Z,-3.00
2017-04-24T03:12:06.661Z,-2.90
2017-04-24T03:13:06.700Z,-2.90
2017-04-24T03:14:06.373Z,-2.90
2017-04-24T03:15:05.665Z,-2.90
2017-04-24T03:16:04.882Z,-3.00
2017-04-24T03:17:04.115Z,-3.00
2017-04-24T03:18:03.744Z,-2.90
2017-04-24T03:19:02.974Z,-2.90
2017-04-24T03:20:02.250Z,-2.90
2017-04-24T03:21:01.508Z,-2.80
2017-04-24T03:22:00.705Z,-2.80
2017-04-24T03:22:59.920Z,-2.80
2017-04-24T03:23:59.356Z,-2.90
2017-04-24T03:24:59.095Z,-2.90
2017-04-24T03:25:58.332Z,-2.90
2017-04-24T03:26:58.814Z,-2.90
2017-04-24T03:27:59.343Z,-2.90
2017-04-24T03:28:58.794Z,-3.00
2017-04-24T03:29:58.378Z,-2.90
2017-04-24T03:30:58.342Z,-2.90
2017-04-24T03:31:57.936Z,-2.90
2017-04-24T03:32:58.395Z,-2.90
2017-04-24T03:33:57.623Z,-2.90
2017-04-24T03:34:56.891Z,-2.90
2017-04-24T03:35:56.524Z,-2.90
2017-04-24T03:36:55.745Z,-2.90
2017-04-24T03:37:55.713Z,-3.00
2017-04-24T03:38:54.938Z,-2.90
2017-04-24T03:39:55.153Z,-2.90
2017-04-24T03:40:56.389Z,-3.00
2017-04-24T03:41:56.858Z,-3.00
2017-04-24T03:42:56.086Z,-3.00
2017-04-24T03:43:55.325Z,-3.00
2017-04-24T03:44:54.551Z,-3.00
2017-04-24T03:45:53.854Z,-3.00
2017-04-24T03:46:53.196Z,-3.00
2017-04-24T03:47:52.431Z,-3.00
2017-04-24T03:48:51.756Z,-3.00
2017-04-24T03:49:51.173Z,-3.00
2017-04-24T03:50:50.493Z,-3.00
2017-04-24T03:51:49.748Z,-3.00
2017-04-24T03:52:49.004Z,-3.00
2017-04-24T03:53:49.082Z,-3.10
2017-04-24T03:54:49.081Z,-3.00
2017-04-24T03:55:48.835Z,-3.00
2017-04-24T03:56:48.489Z,-3.00
2017-04-24T03:57:48.519Z,-3.10
2017-04-24T03:58:48.260Z,-3.00
2017-04-24T03:59:47.511Z,-3.00
2017-04-24T04:00:47.492Z,-3.00
2017-04-24T04:01:47.174Z,-3.00
2017-04-24T04:02:46.397Z,-3.00
2017-04-24T04:03:45.644Z,-2.90
2017-04-24T04:04:44.908Z,-2.90
2017-04-24T04:05:44.789Z,-2.90
2017-04-24T04:06:45.013Z,-2.90
2017-04-24T04:07:44.960Z,-2.90
2017-04-24T04:08:44.209Z,-2.90
2017-04-24T04:09:44.197Z,-2.90
2017-04-24T04:10:43.460Z,-2.80
2017-04-24T04:11:42.796Z,-2.80
2017-04-24T04:12:43.562Z,-2.80
2017-04-24T04:13:42.825Z,-2.70
2017-04-24T04:14:42.053Z,-2.70
2017-04-24T04:15:41.272Z,-2.60
2017-04-24T04:16:40.541Z,-2.60
2017-04-24T04:17:39.790Z,-2.50
2017-04-24T04:18:39.364Z,-2.50
2017-04-24T04:19:38.907Z,-2.40
2017-04-24T04:20:38.151Z,-2.40
2017-04-24T04:21:38.277Z,-2.30
2017-04-24T04:22:38.435Z,-2.30
2017-04-24T04:23:37.908Z,-2.20
2017-04-24T04:24:37.131Z,-2.20
2017-04-24T04:25:36.739Z,-2.20
2017-04-24T04:26:35.980Z,-2.20
2017-04-24T04:27:35.187Z,-2.10
2017-04-24T04:28:34.810Z,-2.10
2017-04-24T04:30:33.694Z,-2.10
2017-04-24T04:31:33.323Z,-2.10
2017-04-24T04:32:33.366Z,-2.00
2017-04-24T04:33:32.617Z,-2.00
2017-04-24T04:34:32.608Z,-1.90
2017-04-24T04:35:31.881Z,-1.90
2017-04-24T04:36:31.811Z,-1.80
2017-04-24T04:37:31.794Z,-1.80
2017-04-24T04:38:31.019Z,-1.80
2017-04-24T04:39:30.983Z,-1.80
2017-04-24T04:40:30.280Z,-1.70
2017-04-24T04:41:29.492Z,-1.70
2017-04-24T04:42:29.464Z,-1.60
2017-04-24T04:43:28.854Z,-1.60
2017-04-24T04:44:28.449Z,-1.50
2017-04-24T04:45:27.672Z,-1.50
2017-04-24T04:46:27.868Z,-1.40
2017-04-24T04:47:27.856Z,-1.40
2017-04-24T04:48:27.072Z,-1.40
2017-04-24T04:49:26.997Z,-1.30
2017-04-24T04:50:26.955Z,-1.30
2017-04-24T04:51:26.224Z,-1.20
2017-04-24T04:52:26.266Z,-1.20
2017-04-24T04:53:25.624Z,-1.10
2017-04-24T04:54:24.864Z,-1.10
2017-04-24T04:55:24.103Z,-1.00
2017-04-24T04:56:24.201Z,-1.00
2017-04-24T04:57:23.781Z,-1.00
2017-04-24T04:58:23.810Z,-0.90
2017-04-24T04:59:23.151Z,-0.90
2017-04-24T05:00:22.371Z,-0.80
2017-04-24T05:01:22.347Z,-0.80
2017-04-24T05:02:21.571Z,-0.70
2017-04-24T05:03:22.104Z,-0.70
2017-04-24T05:04:21.398Z,-0.60
2017-04-24T05:05:21.623Z,-0.60
2017-04-24T05:06:20.859Z,-0.50
2017-04-24T05:07:21.012Z,-0.50
2017-04-24T05:08:20.272Z,-0.50
2017-04-24T05:09:20.224Z,-0.50
2017-04-24T05:10:19.479Z,-0.40
2017-04-24T05:11:19.483Z,-0.40
2017-04-24T05:12:19.464Z,-0.40
2017-04-24T05:13:18.708Z,-0.30
2017-04-24T05:14:17.937Z,-0.30
2017-04-24T05:15:17.195Z,-0.20
2017-04-24T05:16:16.476Z,-0.20
2017-04-24T05:17:16.309Z,-0.10
2017-04-24T05:18:15.535Z,-0.10
2017-04-24T05:19:15.542Z,0.00
2017-04-24T05:20:15.540Z,0.00
2017-04-24T05:21:15.421Z,0.30
2017-04-24T05:23:14.225Z,2.90
2017-04-24T05:24:13.656Z,5.10
2017-04-24T05:25:13.651Z,7.40
2017-04-24T05:26:14.003Z,9.30
2017-04-24T05:27:13.229Z,11.20
2017-04-24T05:28:12.488Z,12.60
2017-04-24T05:29:11.711Z,14.10
2017-04-24T05:30:10.932Z,15.20
2017-04-24T05:31:10.519Z,16.20
2017-04-24T05:32:10.508Z,16.70
2017-04-24T05:33:09.743Z,17.50
2017-04-24T05:34:09.757Z,18.40
2017-04-24T05:35:09.477Z,18.80
2017-04-24T05:36:08.716Z,19.40
2017-04-24T05:37:08.760Z,19.60
2017-04-24T05:38:07.957Z,19.90
2017-04-24T05:39:07.207Z,20.30
2017-04-24T05:40:07.187Z,20.80
2017-04-24T05:41:06.426Z,21.40
2017-04-24T05:42:05.659Z,21.30
2017-04-24T05:43:05.594Z,21.70
2017-04-24T05:44:05.384Z,22.10
2017-04-24T05:45:05.381Z,22.60
2017-04-24T05:46:04.624Z,22.40
2017-04-24T05:47:03.831Z,22.30
2017-04-24T05:48:03.272Z,22.60
2017-04-24T05:49:03.233Z,22.60
2017-04-24T05:50:02.781Z,22.70
2017-04-24T05:51:02.092Z,22.00
2017-04-24T05:52:01.433Z,21.90
2017-04-24T05:53:00.649Z,22.40
2017-04-24T05:54:00.594Z,22.30
2017-04-24T05:54:59.858Z,22.90
2017-04-24T05:55:59.075Z,23.70
2017-04-24T05:56:58.293Z,23.50
2017-04-24T05:57:57.552Z,23.50
2017-04-24T05:58:56.772Z,23.80
2017-04-24T05:59:55.976Z,23.50
2017-04-24T06:00:55.277Z,23.80
2017-04-24T06:01:56.748Z,23.90
2017-04-24T06:02:55.961Z,24.20
2017-04-24T06:03:55.394Z,24.30
2017-04-24T06:04:55.355Z,24.40
2017-04-24T06:05:54.556Z,24.00
2017-04-24T06:06:53.775Z,24.10
2017-04-24T06:07:53.558Z,24.30
2017-04-24T06:08:53.213Z,23.20
2017-04-24T06:09:53.127Z,22.40
2017-04-24T06:10:52.382Z,21.80
2017-04-24T06:11:53.055Z,21.00
2017-04-24T06:12:52.287Z,20.20
2017-04-24T06:13:52.321Z,19.60
2017-04-24T06:14:51.540Z,19.90
2017-04-24T06:15:50.956Z,20.30
2017-04-24T06:16:50.522Z,20.30
2017-04-24T06:17:49.798Z,20.20
2017-04-24T06:18:49.032Z,19.90
2017-04-24T06:19:48.248Z,19.30
2017-04-24T06:20:48.231Z,18.60
2017-04-24T06:21:47.475Z,18.40
2017-04-24T06:22:47.651Z,18.20
2017-04-24T06:23:47.621Z,17.60
2017-04-24T06:24:47.762Z,17.00
2017-04-24T06:25:47.754Z,16.30
2017-04-24T06:26:47.003Z,15.80
2017-04-24T06:27:46.392Z,15.10
2017-04-24T06:28:45.688Z,14.80
2017-04-24T06:29:45.008Z,15.00
2017-04-24T06:30:44.236Z,15.00
2017-04-24T06:31:44.230Z,14.50
2017-04-24T06:32:43.527Z,13.80
2017-04-24T06:33:43.575Z,13.20
2017-04-24T06:34:42.809Z,12.80
2017-04-24T06:35:42.391Z,12.60
2017-04-24T06:36:41.601Z,12.30
2017-04-24T06:37:40.834Z,12.10
2017-04-24T06:38:40.051Z,12.00
2017-04-24T06:39:39.301Z,12.00
2017-04-24T06:40:38.947Z,11.70
2017-04-24T06:41:38.172Z,11.50
2017-04-24T06:42:38.749Z,10.80
2017-04-24T06:43:38.122Z,10.50
2017-04-24T06:44:37.345Z,10.10
2017-04-24T06:45:36.627Z,9.50
2017-04-24T06:46:36.655Z,9.10
2017-04-24T06:47:35.887Z,8.60
2017-04-24T06:48:35.088Z,8.60
2017-04-24T06:49:34.300Z,8.50
2017-04-24T06:50:34.536Z,8.60
2017-04-24T06:51:33.805Z,8.80
2017-04-24T06:52:33.013Z,9.00
2017-04-24T06:53:32.224Z,9.10
2017-04-24T06:54:32.709Z,9.10
2017-04-24T06:55:31.932Z,9.20
2017-04-24T06:56:31.903Z,8.90
2017-04-24T06:57:31.389Z,8.90
2017-04-24T06:58:30.589Z,8.80
2017-04-24T06:59:29.797Z,8.40
2017-04-24T07:00:29.017Z,8.30
2017-04-24T07:01:28.841Z,8.30
2017-04-24T07:02:28.169Z,8.60
2017-04-24T07:03:27.849Z,9.00
2017-04-24T07:04:27.209Z,9.20
2017-04-24T07:05:26.443Z,9.60
2017-04-24T07:06:25.654Z,9.80
2017-04-24T07:07:25.339Z,10.00
2017-04-24T07:08:24.969Z,10.20
2017-04-24T07:09:24.217Z,10.50
2017-04-24T07:10:23.459Z,10.60
2017-04-24T07:11:23.298Z,10.70
2017-04-24T07:12:22.927Z,10.80
2017-04-24T07:13:22.945Z,10.60
2017-04-24T07:14:22.933Z,10.80
2017-04-24T07:15:22.200Z,10.90
2017-04-24T07:16:22.603Z,10.70
2017-04-24T07:17:21.865Z,10.40
2017-04-24T07:18:21.056Z,10.00
2017-04-24T07:19:21.065Z,9.60
2017-04-24T07:20:20.374Z,9.00
2017-04-24T07:21:19.744Z,8.90
2017-04-24T07:22:18.997Z,8.80
2017-04-24T07:23:19.000Z,8.90
2017-04-24T07:24:18.203Z,8.90
2017-04-24T07:25:17.455Z,8.90
2017-04-24T07:26:17.052Z,8.80
2017-04-24T07:27:16.601Z,8.90
2017-04-24T07:28:15.852Z,9.10
2017-04-24T07:29:15.153Z,9.40
2017-04-24T07:30:14.958Z,9.70
2017-04-24T07:31:14.284Z,9.90
2017-04-24T07:32:14.140Z,10.00
2017-04-24T07:33:13.404Z,10.30
2017-04-24T07:34:12.683Z,10.50
2017-04-24T07:35:11.945Z,10.80
2017-04-24T07:36:11.908Z,11.10
2017-04-24T07:37:11.209Z,11.30
2017-04-24T07:38:10.474Z,11.50
2017-04-24T07:39:09.752Z,11.50
2017-04-24T07:40:09.012Z,11.60
2017-04-24T07:41:09.432Z,11.60
2017-04-24T07:42:09.392Z,11.80
2017-04-24T07:43:08.615Z,11.80
2017-04-24T07:44:07.833Z,11.80
2017-04-24T07:45:07.392Z,11.90
2017-04-24T07:46:06.643Z,11.80
2017-04-24T07:47:05.868Z,11.80
2017-04-24T07:48:05.297Z,11.80
2017-04-24T07:49:04.643Z,12.10
2017-04-24T07:50:04.662Z,12.30
2017-04-24T07:51:04.214Z,12.20
2017-04-24T07:52:04.944Z,11.90
2017-04-24T07:53:04.984Z,11.60
2017-04-24T07:54:04.752Z,11.40
2017-04-24T07:55:04.296Z,11.40
2017-04-24T07:56:04.310Z,11.50
2017-04-24T07:57:03.514Z,11.80
2017-04-24T07:58:03.946Z,12.20
2017-04-24T07:59:03.460Z,12.40
2017-04-24T08:00:02.873Z,12.40
2017-04-24T08:01:02.389Z,12.70
2017-04-24T08:02:01.836Z,12.90
2017-04-24T08:03:01.235Z,13.20
2017-04-24T08:04:00.458Z,13.30
2017-04-24T08:04:59.721Z,13.40
2017-04-24T08:05:59.183Z,13.70
2017-04-24T08:06:58.792Z,13.90
2017-04-24T08:07:58.162Z,14.00
2017-04-24T08:08:58.169Z,14.20
2017-04-24T08:09:58.411Z,14.20
2017-04-24T08:10:58.175Z,14.50
2017-04-24T08:11:58.168Z,14.70
2017-04-24T08:12:58.205Z,14.80
2017-04-24T08:13:58.200Z,14.70
2017-04-24T08:14:58.444Z,14.80
2017-04-24T08:15:57.901Z,14.90
2017-04-24T08:16:57.167Z,14.90
2017-04-24T08:17:56.713Z,14.90
2017-04-24T08:18:56.488Z,14.90
2017-04-24T08:19:56.106Z,14.80
2017-04-24T08:20:56.732Z,14.80
2017-04-24T08:21:56.000Z,14.80
2017-04-24T08:22:55.313Z,14.50
2017-04-24T08:23:55.571Z,14.60
2017-04-24T08:24:54.813Z,14.60
2017-04-24T08:25:55.009Z,14.60
2017-04-24T08:26:54.219Z,14.60
2017-04-24T08:27:54.170Z,14.70
2017-04-24T08:28:53.437Z,14.90
2017-04-24T08:29:52.703Z,14.90
2017-04-24T08:30:52.660Z,14.80
2017-04-24T08:31:52.176Z,14.90
2017-04-24T08:32:52.717Z,14.60
2017-04-24T08:33:52.245Z,14.40
2017-04-24T08:34:52.075Z,14.20
2017-04-24T08:35:51.842Z,13.90
2017-04-24T08:36:51.292Z,13.80
2017-04-24T08:37:51.045Z,13.70
2017-04-24T08:38:50.265Z,13.50
2017-04-24T08:39:50.078Z,13.60
2017-04-24T08:40:50.296Z,13.70
2017-04-24T08:41:50.106Z,14.00
2017-04-24T08:42:50.105Z,14.30
2017-04-24T08:43:49.378Z,14.30
2017-04-24T08:44:48.610Z,14.20
2017-04-24T08:45:48.556Z,13.90
2017-04-24T08:46:48.459Z,13.90
2017-04-24T08:47:47.700Z,14.10
2017-04-24T08:48:47.527Z,14.30
2017-04-24T08:49:46.806Z,14.30
2017-04-24T08:50:47.532Z,14.40
2017-04-24T08:51:46.785Z,14.50
2017-04-24T08:52:46.628Z,14.70
2017-04-24T08:53:45.956Z,15.00
2017-04-24T08:54:45.224Z,15.30
2017-04-24T08:55:44.835Z,15.60
2017-04-24T08:56:44.555Z,15.50
2017-04-24T08:57:44.225Z,15.70
2017-04-24T08:58:43.431Z,15.80
2017-04-24T08:59:42.652Z,15.80
2017-04-24T09:00:42.451Z,15.70
2017-04-24T09:01:41.899Z,15.60
2017-04-24T09:02:41.149Z,15.90
2017-04-24T09:03:40.388Z,15.90
2017-04-24T09:04:40.088Z,16.00
2017-04-24T09:05:39.637Z,16.20
2017-04-24T09:06:39.619Z,16.30
2017-04-24T09:07:39.309Z,16.40
2017-04-24T09:08:39.102Z,16.70
2017-04-24T09:09:38.382Z,16.90
2017-04-24T09:10:38.266Z,17.00
2017-04-24T09:11:38.743Z,16.70
2017-04-24T09:12:37.997Z,16.80
2017-04-24T09:13:37.869Z,16.90
2017-04-24T09:14:37.627Z,16.90
2017-04-24T09:15:36.861Z,16.80
2017-04-24T09:16:43.478Z,16.70
2017-04-24T09:17:42.763Z,16.80
2017-04-24T09:18:42.375Z,16.90
2017-04-24T09:19:41.802Z,17.00
2017-04-24T09:20:42.146Z,16.90
2017-04-24T09:21:41.965Z,16.90
2017-04-24T09:22:41.276Z,16.70
2017-04-24T09:23:41.154Z,16.20
2017-04-24T09:24:40.444Z,16.10
2017-04-24T09:25:40.217Z,16.10
2017-04-24T09:26:40.014Z,15.90
2017-04-24T09:27:39.487Z,15.80
2017-04-24T09:28:39.996Z,16.10
2017-04-24T09:29:40.397Z,16.50
2017-04-24T09:30:39.652Z,16.80
2017-04-24T09:31:39.451Z,16.90
2017-04-24T09:32:40.552Z,17.10
2017-04-24T09:33:40.543Z,17.30
2017-04-24T09:34:39.905Z,17.30
2017-04-24T09:35:39.196Z,17.20
2017-04-24T09:36:39.180Z,16.90
2017-04-24T09:37:38.496Z,17.20
2017-04-24T09:38:37.736Z,17.00
2017-04-24T09:39:37.270Z,17.00
2017-04-24T09:40:36.516Z,17.10
2017-04-24T09:41:36.038Z,17.10
2017-04-24T09:42:35.464Z,17.00
2017-04-24T09:43:35.698Z,17.30
2017-04-24T09:44:35.219Z,17.30
2017-04-24T09:45:34.509Z,17.60
2017-04-24T09:46:33.867Z,17.70
2017-04-24T09:47:33.582Z,17.70
2017-04-24T09:48:33.877Z,17.50
2017-04-24T09:49:33.096Z,17.30
2017-04-24T09:50:32.488Z,17.00
2017-04-24T09:51:32.132Z,16.90
2017-04-24T09:52:31.497Z,16.30
2017-04-24T09:53:31.921Z,16.30
2017-04-24T09:54:32.073Z,16.40
2017-04-24T09:55:31.330Z,16.80
2017-04-24T09:56:31.425Z,16.90
2017-04-24T09:57:31.891Z,17.20
2017-04-24T09:58:31.852Z,17.40
2017-04-24T09:59:31.085Z,17.10
2017-04-24T10:00:30.842Z,17.00
2017-04-24T10:01:31.428Z,17.00
2017-04-24T10:02:31.694Z,17.20
2017-04-24T10:03:31.567Z,17.00
2017-04-24T10:04:31.155Z,16.80
2017-04-24T10:05:30.899Z,16.80
2017-04-24T10:06:30.987Z,16.90
2017-04-24T10:07:30.949Z,17.10
2017-04-24T10:08:30.171Z,17.10
2017-04-24T10:09:30.039Z,17.20
2017-04-24T10:10:29.693Z,17.50
2017-04-24T10:11:28.970Z,17.90
2017-04-24T10:12:28.313Z,18.00
2017-04-24T10:13:27.568Z,18.20
2017-04-24T10:14:27.708Z,18.40
2017-04-24T10:15:27.257Z,18.30
2017-04-24T10:16:26.679Z,18.10
2017-04-24T10:17:26.758Z,18.30
2017-04-24T10:18:26.415Z,18.30
2017-04-24T10:19:25.680Z,18.30
2017-04-24T10:20:24.899Z,18.10
2017-04-24T10:21:24.937Z,17.90
2017-04-24T10:22:24.231Z,17.80
2017-04-24T10:23:23.520Z,17.70
2017-04-24T10:24:22.996Z,17.60
2017-04-24T10:25:23.028Z,17.60
2017-04-24T10:26:22.319Z,17.60
2017-04-24T10:27:23.006Z,17.60
2017-04-24T10:28:22.231Z,17.60
2017-04-24T10:29:21.521Z,17.70
2017-04-24T10:30:20.727Z,17.60
2017-04-24T10:31:20.679Z,17.60
2017-04-24T10:32:20.393Z,17.60
2017-04-24T10:33:19.709Z,17.90
2017-04-24T10:34:18.909Z,17.80
2017-04-24T10:35:18.790Z,17.80
2017-04-24T10:36:18.767Z,17.80
2017-04-24T10:37:18.145Z,17.80
2017-04-24T10:38:17.393Z,17.60
2017-04-24T10:39:16.626Z,16.90
2017-04-24T10:40:16.765Z,17.10
2017-04-24T10:41:16.544Z,17.00
2017-04-24T10:42:15.767Z,17.10
2017-04-24T10:43:15.304Z,17.20
2017-04-24T10:44:14.676Z,17.20
2017-04-24T10:45:13.939Z,17.10
2017-04-24T10:46:13.687Z,17.10
2017-04-24T10:47:12.909Z,17.20
2017-04-24T10:48:12.458Z,17.20
2017-04-24T10:49:11.795Z,17.30
2017-04-24T10:50:11.256Z,17.50
2017-04-24T10:51:11.328Z,17.60
2017-04-24T10:52:11.334Z,18.00
2017-04-24T10:53:10.539Z,18.00
2017-04-24T10:54:09.761Z,17.80
2017-04-24T10:55:09.414Z,17.80
2017-04-24T10:56:09.114Z,17.70
2017-04-24T10:57:09.082Z,17.80
2017-04-24T10:58:08.278Z,17.90
2017-04-24T10:59:07.552Z,17.90
2017-04-24T11:00:06.945Z,17.90
2017-04-24T11:01:06.502Z,18.00
2017-04-24T11:02:05.789Z,18.20
2017-04-24T11:03:05.028Z,18.00
2017-04-24T11:04:04.261Z,18.10
2017-04-24T11:05:03.478Z,18.30
2017-04-24T11:06:03.512Z,18.30
2017-04-24T11:07:02.996Z,17.90
2017-04-24T11:08:02.287Z,17.70
2017-04-24T11:09:01.739Z,17.20
2017-04-24T11:10:01.033Z,17.00
2017-04-24T11:11:00.247Z,16.60
2017-04-24T11:12:00.332Z,16.50
2017-04-24T11:12:59.821Z,16.40
2017-04-24T11:13:59.805Z,16.30
2017-04-24T11:14:59.228Z,16.50
2017-04-24T11:15:58.757Z,16.60
2017-04-24T11:16:58.039Z,16.70
2017-04-24T11:17:58.533Z,16.60
2017-04-24T11:18:58.524Z,16.90
2017-04-24T11:19:57.808Z,17.20
2017-04-24T11:20:58.340Z,17.30
2017-04-24T11:21:58.544Z,17.50
2017-04-24T11:22:58.311Z,17.80
2017-04-24T11:23:58.107Z,18.00
2017-04-24T11:24:57.626Z,18.20
2017-04-24T11:25:56.954Z,18.30
2017-04-24T11:26:56.265Z,18.30
2017-04-24T11:27:56.232Z,18.50
2017-04-24T11:28:55.713Z,18.40
2017-04-24T11:29:55.273Z,18.50
2017-04-24T11:30:55.275Z,18.40
2017-04-24T11:31:55.251Z,18.00
2017-04-24T11:32:54.524Z,18.00
2017-04-24T11:33:53.744Z,18.20
2017-04-24T11:34:53.347Z,18.30
2017-04-24T11:35:53.388Z,18.50
2017-04-24T11:36:52.998Z,18.60
2017-04-24T11:37:52.228Z,18.80
2017-04-24T11:38:51.475Z,19.10
2017-04-24T11:39:50.951Z,19.30
2017-04-24T11:40:50.191Z,19.40
2017-04-24T11:41:49.452Z,19.70
2017-04-24T11:42:49.251Z,19.50
2017-04-24T11:43:49.040Z,19.40
2017-04-24T11:44:48.260Z,19.50
2017-04-24T11:45:47.496Z,19.50
2017-04-24T11:46:46.852Z,19.70
2017-04-24T11:47:46.141Z,19.90
2017-04-24T11:48:45.640Z,20.00
2017-04-24T11:49:45.221Z,20.30
2017-04-24T11:50:44.668Z,20.40
2017-04-24T11:51:45.174Z,20.40
2017-04-24T11:52:45.207Z,20.20
2017-04-24T11:53:44.616Z,20.20
2017-04-24T11:54:43.919Z,20.20
2017-04-24T11:55:43.476Z,20.00
2017-04-24T11:56:42.746Z,20.00
2017-04-24T11:57:42.020Z,19.90
2017-04-24T11:58:41.280Z,19.70
2017-04-24T11:59:40.539Z,19.60
2017-04-24T12:00:40.623Z,19.60
2017-04-24T12:01:40.023Z,19.70
2017-04-24T12:02:39.409Z,19.50
2017-04-24T12:03:38.768Z,19.40
2017-04-24T12:04:38.035Z,19.50
2017-04-24T12:05:37.467Z,19.50
2017-04-24T12:06:36.768Z,19.40
2017-04-24T12:07:36.004Z,19.40
2017-04-24T12:08:35.278Z,19.30
2017-04-24T12:09:35.772Z,19.60
2017-04-24T12:10:35.773Z,19.50
2017-04-24T12:11:35.217Z,19.70
2017-04-24T12:12:35.026Z,19.80
2017-04-24T12:13:34.292Z,19.90
2017-04-24T12:14:33.804Z,20.00
2017-04-24T12:15:33.199Z,20.10
2017-04-24T12:16:32.480Z,20.00
2017-04-24T12:17:31.883Z,19.90
2017-04-24T12:18:31.412Z,19.60
2017-04-24T12:19:30.675Z,19.60
2017-04-24T12:20:30.038Z,19.70
2017-04-24T12:21:30.098Z,19.60
2017-04-24T12:22:29.365Z,19.70
2017-04-24T12:23:28.729Z,19.70
2017-04-24T12:24:28.854Z,19.80
2017-04-24T12:25:28.826Z,20.00
2017-04-24T12:26:28.109Z,20.10
2017-04-24T12:27:27.447Z,20.00
2017-04-24T12:28:26.871Z,20.10
2017-04-24T12:29:26.208Z,20.10
2017-04-24T12:30:26.212Z,19.90
2017-04-24T12:31:28.887Z,20.10
2017-04-24T12:32:32.384Z,20.10
2017-04-24T12:33:32.669Z,20.00
2017-04-24T12:34:31.992Z,20.10
2017-04-24T12:35:33.365Z,20.40
2017-04-24T12:36:32.708Z,20.60
2017-04-24T12:37:32.081Z,20.70
2017-04-24T12:38:31.398Z,20.60
2017-04-24T12:39:31.483Z,20.60
2017-04-24T12:40:30.843Z,20.60
2017-04-24T12:41:30.112Z,20.70
2017-04-24T12:42:30.120Z,20.80
2017-04-24T12:43:30.176Z,20.90
2017-04-24T12:44:29.423Z,21.00
2017-04-24T12:45:28.723Z,21.10
2017-04-24T12:46:27.965Z,21.00
2017-04-24T12:47:27.193Z,20.90
2017-04-24T12:48:26.436Z,20.60
2017-04-24T12:49:25.652Z,20.40
2017-04-24T12:50:25.625Z,20.10
2017-04-24T12:51:24.893Z,20.10
2017-04-24T12:52:24.098Z,20.20